This is the latest recevied weather packets stored in our database for station/object SQ6PCH-10. If no packets are shown the sender has not sent any weather packets the latest 10 day(s).
| Time | Temp. | Humidity | Pressure | Rain* | Wind** | Luminosity | Snow |
|---|---|---|---|---|---|---|---|
| 1777463797 | 21.11° C | 12% | 1013.7 hPa | - | - | - | - |
| 1777462597 | 16.67° C | 14% | 1013.7 hPa | - | - | - | - |
| 1777461997 | 21.67° C | 10% | 1013.7 hPa | - | - | - | - |
| 1777461397 | 21.67° C | 9% | 1013.7 hPa | - | - | - | - |
| 1777460796 | 20° C | 11% | 1013.7 hPa | - | - | - | - |
| 1777458996 | 17.78° C | 12% | 1013.8 hPa | - | - | - | - |
| 1777458396 | 16.67° C | 15% | 1014 hPa | - | - | - | - |
| 1777457796 | 16.11° C | 15% | 1013.8 hPa | - | - | - | - |
| 1777457195 | 17.78° C | 14% | 1013.8 hPa | - | - | - | - |
| 1777455395 | 15.56° C | 15% | 1013.9 hPa | - | - | - | - |
| 1777454794 | 15.56° C | 16% | 1013.9 hPa | - | - | - | - |
| 1777454194 | 14.44° C | 18% | 1013.9 hPa | - | - | - | - |
| 1777453594 | 13.89° C | 18% | 1013.8 hPa | - | - | - | - |
| 1777452994 | 13.89° C | 17% | 1013.9 hPa | - | - | - | - |
| 1777452394 | 14.44° C | 17% | 1013.8 hPa | - | - | - | - |
| 1777451793 | 15.56° C | 16% | 1013.8 hPa | - | - | - | - |
| 1777451193 | 14.44° C | 17% | 1013.7 hPa | - | - | - | - |
| 1777450593 | 12.22° C | 20% | 1013.7 hPa | - | - | - | - |
| 1777449993 | 12.78° C | 21% | 1013.8 hPa | - | - | - | - |
| 1777449393 | 11.67° C | 23% | 1013.8 hPa | - | - | - | - |
| 1777448793 | 13.33° C | 20% | 1013.5 hPa | - | - | - | - |
| 1777448193 | 12.22° C | 23% | 1013.5 hPa | - | - | - | - |
| 1777447592 | 10° C | 27% | 1013.4 hPa | - | - | - | - |
| 1777446992 | 8.33° C | 30% | 1013.4 hPa | - | - | - | - |
| 1777446392 | 7.78° C | 33% | 1013.2 hPa | - | - | - | - |
* Rain since midnight (hover to see other rain measurements)
** Current wind speed in m/s (hover to see current wind gust speed)